sensor_id;sensor_type;location;lat;lon;timestamp;pressure;altitude;pressure_sealevel;temperature;humidity
21902;BME280;11115;46.038;14.612;2024-03-08T00:01:50;98652.00;;;4.81;100.00
21902;BME280;11115;46.038;14.612;2024-03-08T00:04:22;98655.34;;;4.83;100.00
21902;BME280;11115;46.038;14.612;2024-03-08T00:07:00;98615.19;;;4.57;100.00
21902;BME280;11115;46.038;14.612;2024-03-08T00:09:46;98650.88;;;4.67;100.00
21902;BME280;11115;46.038;14.612;2024-03-08T00:12:24;98630.53;;;4.58;100.00
21902;BME280;11115;46.038;14.612;2024-03-08T00:14:58;98650.91;;;4.77;100.00
21902;BME280;11115;46.038;14.612;2024-03-08T00:17:32;98634.44;;;4.72;100.00
21902;BME280;11115;46.038;14.612;2024-03-08T00:20:04;98650.91;;;4.77;100.00
21902;BME280;11115;46.038;14.612;2024-03-08T00:22:42;98654.69;;;4.66;100.00
21902;BME280;11115;46.038;14.612;2024-03-08T00:25:17;98630.25;;;4.60;100.00
21902;BME280;11115;46.038;14.612;2024-03-08T00:28:03;98641.84;;;4.72;100.00
21902;BME280;11115;46.038;14.612;2024-03-08T00:30:41;98649.53;;;4.75;100.00
21902;BME280;11115;46.038;14.612;2024-03-08T00:33:19;98649.78;;;4.73;100.00
21902;BME280;11115;46.038;14.612;2024-03-08T00:35:54;98645.97;;;4.79;100.00
21902;BME280;11115;46.038;14.612;2024-03-08T00:38:29;98647.06;;;4.73;100.00
21902;BME280;11115;46.038;14.612;2024-03-08T00:41:12;98643.75;;;4.66;100.00
21902;BME280;11115;46.038;14.612;2024-03-08T00:43:46;98643.75;;;4.66;100.00
21902;BME280;11115;46.038;14.612;2024-03-08T00:46:30;98649.44;;;4.54;100.00
21902;BME280;11115;46.038;14.612;2024-03-08T00:49:07;98623.38;;;4.52;100.00
21902;BME280;11115;46.038;14.612;2024-03-08T00:51:49;98651.91;;;4.61;100.00
21902;BME280;11115;46.038;14.612;2024-03-08T00:54:23;98654.09;;;4.59;100.00
21902;BME280;11115;46.038;14.612;2024-03-08T00:56:58;98649.69;;;4.53;100.00
21902;BME280;11115;46.038;14.612;2024-03-08T00:59:39;98648.06;;;4.57;100.00
21902;BME280;11115;46.038;14.612;2024-03-08T01:02:16;98650.59;;;4.64;100.00
21902;BME280;11115;46.038;14.612;2024-03-08T01:04:54;98645.59;;;4.55;100.00
21902;BME280;11115;46.038;14.612;2024-03-08T01:07:35;98642.09;;;4.65;100.00
21902;BME280;11115;46.038;14.612;2024-03-08T01:10:18;98649.75;;;4.63;100.00
21902;BME280;11115;46.038;14.612;2024-03-08T01:12:49;98642.13;;;4.70;100.00
21902;BME280;11115;46.038;14.612;2024-03-08T01:15:25;98636.09;;;4.73;100.00
21902;BME280;11115;46.038;14.612;2024-03-08T01:18:01;98631.41;;;4.69;100.00
21902;BME280;11115;46.038;14.612;2024-03-08T01:20:44;98646.50;;;4.71;100.00
21902;BME280;11115;46.038;14.612;2024-03-08T01:23:28;98638.81;;;4.73;100.00
21902;BME280;11115;46.038;14.612;2024-03-08T01:26:03;98631.19;;;4.80;100.00
21902;BME280;11115;46.038;14.612;2024-03-08T01:28:49;98641.31;;;4.75;100.00
21902;BME280;11115;46.038;14.612;2024-03-08T01:31:22;98634.72;;;4.71;100.00
21902;BME280;11115;46.038;14.612;2024-03-08T01:33:57;98616.28;;;4.56;100.00
21902;BME280;11115;46.038;14.612;2024-03-08T01:36:34;98631.97;;;4.66;100.00
21902;BME280;11115;46.038;14.612;2024-03-08T01:39:07;98628.69;;;4.79;100.00
21902;BME280;11115;46.038;14.612;2024-03-08T01:41:39;98630.59;;;4.73;100.00
21902;BME280;11115;46.038;14.612;2024-03-08T01:44:24;98608.66;;;4.68;100.00
21902;BME280;11115;46.038;14.612;2024-03-08T01:47:01;98612.22;;;4.69;100.00
21902;BME280;11115;46.038;14.612;2024-03-08T01:49:33;98624.25;;;4.63;100.00
21902;BME280;11115;46.038;14.612;2024-03-08T01:52:11;98611.91;;;4.60;100.00
21902;BME280;11115;46.038;14.612;2024-03-08T01:54:47;98606.19;;;4.67;100.00
21902;BME280;11115;46.038;14.612;2024-03-08T01:57:17;98608.13;;;4.71;100.00
21902;BME280;11115;46.038;14.612;2024-03-08T01:59:58;98607.25;;;4.61;100.00
21902;BME280;11115;46.038;14.612;2024-03-08T02:02:40;98575.06;;;4.31;100.00
21902;BME280;11115;46.038;14.612;2024-03-08T02:05:20;98595.97;;;4.47;100.00
21902;BME280;11115;46.038;14.612;2024-03-08T02:07:52;98608.31;;;4.49;100.00
21902;BME280;11115;46.038;14.612;2024-03-08T02:10:32;98598.75;;;4.62;100.00
21902;BME280;11115;46.038;14.612;2024-03-08T02:13:14;98601.47;;;4.57;100.00
21902;BME280;11115;46.038;14.612;2024-03-08T02:15:56;98598.75;;;4.62;100.00
21902;BME280;11115;46.038;14.612;2024-03-08T02:18:32;98600.09;;;4.54;100.00
21902;BME280;11115;46.038;14.612;2024-03-08T02:21:08;98586.31;;;4.39;100.00
21902;BME280;11115;46.038;14.612;2024-03-08T02:23:45;98595.44;;;4.50;100.00
21902;BME280;11115;46.038;14.612;2024-03-08T02:26:24;98595.44;;;4.55;100.00
21902;BME280;11115;46.038;14.612;2024-03-08T02:28:57;98594.28;;;4.41;100.00
21902;BME280;11115;46.038;14.612;2024-03-08T02:31:32;98583.63;;;4.44;100.00
21902;BME280;11115;46.038;14.612;2024-03-08T02:34:07;98600.03;;;4.39;100.00
21902;BME280;11115;46.038;14.612;2024-03-08T02:36:44;98592.38;;;4.41;100.00
21902;BME280;11115;46.038;14.612;2024-03-08T02:39:19;98591.25;;;4.37;100.00
21902;BME280;11115;46.038;14.612;2024-03-08T02:41:54;98596.25;;;4.50;100.00
21902;BME280;11115;46.038;14.612;2024-03-08T02:44:43;98601.72;;;4.45;100.00
21902;BME280;11115;46.038;14.612;2024-03-08T02:47:22;98601.47;;;4.52;100.00
21902;BME280;11115;46.038;14.612;2024-03-08T02:49:59;98602.84;;;4.54;100.00
21902;BME280;11115;46.038;14.612;2024-03-08T02:52:36;98587.44;;;4.43;100.00
21902;BME280;11115;46.038;14.612;2024-03-08T02:55:06;98601.47;;;4.57;100.00
21902;BME280;11115;46.038;14.612;2024-03-08T02:57:42;98593.25;;;4.52;100.00
21902;BME280;11115;46.038;14.612;2024-03-08T03:00:15;98593.25;;;4.52;100.00
21902;BME280;11115;46.038;14.612;2024-03-08T03:02:53;98593.19;;;4.42;100.00
21902;BME280;11115;46.038;14.612;2024-03-08T03:05:34;98595.69;;;4.48;100.00
21902;BME280;11115;46.038;14.612;2024-03-08T03:08:08;98587.38;;;4.28;100.00
21902;BME280;11115;46.038;14.612;2024-03-08T03:10:42;98600.81;;;4.35;100.00
21902;BME280;11115;46.038;14.612;2024-03-08T03:13:16;98592.03;;;4.28;100.00
21902;BME280;11115;46.038;14.612;2024-03-08T03:15:53;98591.25;;;4.37;100.00
21902;BME280;11115;46.038;14.612;2024-03-08T03:18:30;98598.72;;;4.47;100.00
21902;BME280;11115;46.038;14.612;2024-03-08T03:21:04;98599.28;;;4.54;100.00
21902;BME280;11115;46.038;14.612;2024-03-08T03:23:40;98599.84;;;4.56;100.00
21902;BME280;11115;46.038;14.612;2024-03-08T03:26:13;98602.28;;;4.47;100.00
21902;BME280;11115;46.038;14.612;2024-03-08T03:28:49;98585.56;;;4.49;100.00
21902;BME280;11115;46.038;14.612;2024-03-08T03:31:21;98603.38;;;4.51;100.00
21902;BME280;11115;46.038;14.612;2024-03-08T03:33:56;98592.41;;;4.46;100.00
21902;BME280;11115;46.038;14.612;2024-03-08T03:36:33;98600.69;;;4.62;100.00
21902;BME280;11115;46.038;14.612;2024-03-08T03:39:15;98597.13;;;4.61;100.00
21902;BME280;11115;46.038;14.612;2024-03-08T03:41:58;98596.00;;;4.57;100.00
21902;BME280;11115;46.038;14.612;2024-03-08T03:44:40;98595.44;;;4.50;100.00
21902;BME280;11115;46.038;14.612;2024-03-08T03:47:16;98604.75;;;4.49;100.00
21902;BME280;11115;46.038;14.612;2024-03-08T03:49:50;98597.53;;;4.33;100.00
21902;BME280;11115;46.038;14.612;2024-03-08T03:52:21;98592.56;;;4.24;100.00
21902;BME280;11115;46.038;14.612;2024-03-08T03:54:58;98598.59;;;4.26;100.00
21902;BME280;11115;46.038;14.612;2024-03-08T03:57:31;98602.38;;;4.20;100.00
21902;BME280;11115;46.038;14.612;2024-03-08T04:00:10;98604.78;;;4.07;100.00
21902;BME280;11115;46.038;14.612;2024-03-08T04:02:58;98607.69;;;3.90;100.00
21902;BME280;11115;46.038;14.612;2024-03-08T04:05:36;98599.41;;;3.85;100.00
21902;BME280;11115;46.038;14.612;2024-03-08T04:08:12;98593.09;;;3.84;100.00
21902;BME280;11115;46.038;14.612;2024-03-08T04:10:48;98592.66;;;3.60;100.00
21902;BME280;11115;46.038;14.612;2024-03-08T04:13:28;98592.13;;;3.63;100.00
21902;BME280;11115;46.038;14.612;2024-03-08T04:16:10;98601.53;;;3.73;100.00
21902;BME280;11115;46.038;14.612;2024-03-08T04:18:46;98607.56;;;3.75;100.00
21902;BME280;11115;46.038;14.612;2024-03-08T04:21:16;98585.13;;;3.78;100.00
21902;BME280;11115;46.038;14.612;2024-03-08T04:23:53;98606.06;;;3.94;100.00
21902;BME280;11115;46.038;14.612;2024-03-08T04:26:25;98532.31;;;3.40;100.00
21902;BME280;11115;46.038;14.612;2024-03-08T04:29:00;98607.31;;;3.81;100.00
21902;BME280;11115;46.038;14.612;2024-03-08T04:31:34;98571.31;;;3.62;100.00
21902;BME280;11115;46.038;14.612;2024-03-08T04:34:08;98610.50;;;3.68;100.00
21902;BME280;11115;46.038;14.612;2024-03-08T04:36:43;98613.91;;;3.48;100.00
21902;BME280;11115;46.038;14.612;2024-03-08T04:39:23;98608.09;;;3.77;100.00
21902;BME280;11115;46.038;14.612;2024-03-08T04:42:01;98607.59;;;3.80;100.00
21902;BME280;11115;46.038;14.612;2024-03-08T04:44:37;98611.78;;;3.92;100.00
21902;BME280;11115;46.038;14.612;2024-03-08T04:47:06;98616.75;;;3.95;100.00
21902;BME280;11115;46.038;14.612;2024-03-08T04:49:41;98616.97;;;3.89;100.00
21902;BME280;11115;46.038;14.612;2024-03-08T04:52:15;98627.97;;;3.99;100.00
21902;BME280;11115;46.038;14.612;2024-03-08T04:54:46;98621.13;;;3.96;100.00
21902;BME280;11115;46.038;14.612;2024-03-08T04:57:20;98632.09;;;4.02;100.00
21902;BME280;11115;46.038;14.612;2024-03-08T04:59:55;98626.03;;;3.94;100.00
21902;BME280;11115;46.038;14.612;2024-03-08T05:02:30;98618.06;;;3.88;100.00
21902;BME280;11115;46.038;14.612;2024-03-08T05:04:59;98559.50;;;3.52;100.00
21902;BME280;11115;46.038;14.612;2024-03-08T05:07:34;98619.19;;;3.92;100.00
21902;BME280;11115;46.038;14.612;2024-03-08T05:10:20;98615.34;;;3.93;100.00
21902;BME280;11115;46.038;14.612;2024-03-08T05:12:49;98613.72;;;3.92;100.00
21902;BME280;11115;46.038;14.612;2024-03-08T05:15:29;98609.84;;;3.88;100.00
21902;BME280;11115;46.038;14.612;2024-03-08T05:18:12;98613.72;;;3.92;100.00
21902;BME280;11115;46.038;14.612;2024-03-08T05:20:47;98605.19;;;3.88;100.00
21902;BME280;11115;46.038;14.612;2024-03-08T05:23:22;98600.56;;;3.89;100.00
21902;BME280;11115;46.038;14.612;2024-03-08T05:25:57;98595.53;;;3.76;100.00
21902;BME280;11115;46.038;14.612;2024-03-08T05:28:27;98610.25;;;3.70;100.00
21902;BME280;11115;46.038;14.612;2024-03-08T05:31:03;98620.69;;;3.78;100.00
21902;BME280;11115;46.038;14.612;2024-03-08T05:33:37;98613.03;;;3.75;100.00
21902;BME280;11115;46.038;14.612;2024-03-08T05:36:09;98605.94;;;3.79;100.00
21902;BME280;11115;46.038;14.612;2024-03-08T05:38:44;98608.44;;;3.85;100.00
21902;BME280;11115;46.038;14.612;2024-03-08T05:41:12;98621.94;;;3.97;100.00
21902;BME280;11115;46.038;14.612;2024-03-08T05:43:45;98614.53;;;3.92;100.00
21902;BME280;11115;46.038;14.612;2024-03-08T05:46:18;98615.81;;;3.85;100.00
21902;BME280;11115;46.038;14.612;2024-03-08T05:48:54;98612.22;;;3.79;100.00
21902;BME280;11115;46.038;14.612;2024-03-08T05:51:27;98633.59;;;3.82;100.00
21902;BME280;11115;46.038;14.612;2024-03-08T05:54:06;98613.28;;;3.73;100.00
21902;BME280;11115;46.038;14.612;2024-03-08T05:56:42;98636.69;;;3.91;100.00
21902;BME280;11115;46.038;14.612;2024-03-08T05:59:20;98632.56;;;3.88;100.00
21902;BME280;11115;46.038;14.612;2024-03-08T06:01:58;98633.66;;;3.87;100.00
21902;BME280;11115;46.038;14.612;2024-03-08T06:04:30;98625.31;;;3.72;100.00
21902;BME280;11115;46.038;14.612;2024-03-08T06:07:00;98634.94;;;3.80;100.00
21902;BME280;11115;46.038;14.612;2024-03-08T06:09:38;98633.25;;;3.74;100.00
21902;BME280;11115;46.038;14.612;2024-03-08T06:12:20;98637.25;;;3.93;100.00
21902;BME280;11115;46.038;14.612;2024-03-08T06:15:02;98622.75;;;3.92;100.00
21902;BME280;11115;46.038;14.612;2024-03-08T06:17:41;98629.03;;;3.93;100.00
21902;BME280;11115;46.038;14.612;2024-03-08T06:20:25;98642.53;;;4.05;100.00
21902;BME280;11115;46.038;14.612;2024-03-08T06:23:01;98643.94;;;4.07;100.00
21902;BME280;11115;46.038;14.612;2024-03-08T06:25:30;98644.44;;;4.04;100.00
21902;BME280;11115;46.038;14.612;2024-03-08T06:28:02;98641.97;;;4.03;100.00
21902;BME280;11115;46.038;14.612;2024-03-08T06:30:41;98645.78;;;4.02;100.00
21902;BME280;11115;46.038;14.612;2024-03-08T06:33:12;98659.69;;;3.90;100.00
21902;BME280;11115;46.038;14.612;2024-03-08T06:35:45;98661.91;;;3.98;100.00
21902;BME280;11115;46.038;14.612;2024-03-08T06:38:16;98654.88;;;4.07;100.00
21902;BME280;11115;46.038;14.612;2024-03-08T06:40:50;98628.00;;;4.04;100.00
21902;BME280;11115;46.038;14.612;2024-03-08T06:43:19;98647.94;;;4.32;100.00
21902;BME280;11115;46.038;14.612;2024-03-08T06:45:58;98657.25;;;4.36;100.00
21902;BME280;11115;46.038;14.612;2024-03-08T06:48:30;98648.22;;;4.35;100.00
21902;BME280;11115;46.038;14.612;2024-03-08T06:51:03;98630.38;;;4.28;100.00
21902;BME280;11115;46.038;14.612;2024-03-08T06:53:44;98658.66;;;4.43;100.00
21902;BME280;11115;46.038;14.612;2024-03-08T06:56:23;98650.97;;;4.40;100.00
21902;BME280;11115;46.038;14.612;2024-03-08T06:59:14;98669.38;;;4.45;100.00
21902;BME280;11115;46.038;14.612;2024-03-08T07:01:50;98663.16;;;4.17;100.00
21902;BME280;11115;46.038;14.612;2024-03-08T07:04:27;98664.34;;;4.26;100.00
21902;BME280;11115;46.038;14.612;2024-03-08T07:07:09;98671.47;;;4.33;100.00
21902;BME280;11115;46.038;14.612;2024-03-08T07:09:40;98642.84;;;4.08;100.00
21902;BME280;11115;46.038;14.612;2024-03-08T07:12:15;98664.28;;;4.21;100.00
21902;BME280;11115;46.038;14.612;2024-03-08T07:14:47;98670.94;;;4.36;100.00
21902;BME280;11115;46.038;14.612;2024-03-08T07:17:21;98674.50;;;4.31;100.00
21902;BME280;11115;46.038;14.612;2024-03-08T07:20:14;98671.53;;;4.43;100.00
21902;BME280;11115;46.038;14.612;2024-03-08T07:22:51;98666.94;;;4.48;100.00
21902;BME280;11115;46.038;14.612;2024-03-08T07:25:24;98672.13;;;4.45;100.00
21902;BME280;11115;46.038;14.612;2024-03-08T07:28:00;98666.88;;;4.43;100.00
21902;BME280;11115;46.038;14.612;2024-03-08T07:30:33;98657.34;;;4.51;100.00
21902;BME280;11115;46.038;14.612;2024-03-08T07:33:21;98661.81;;;4.67;100.00
21902;BME280;11115;46.038;14.612;2024-03-08T07:35:59;98659.94;;;4.73;100.00
21902;BME280;11115;46.038;14.612;2024-03-08T07:38:35;98651.06;;;4.55;100.00
21902;BME280;11115;46.038;14.612;2024-03-08T07:41:05;98649.38;;;4.44;100.00
21902;BME280;11115;46.038;14.612;2024-03-08T07:43:40;98661.22;;;4.60;100.00
21902;BME280;11115;46.038;14.612;2024-03-08T07:46:14;98661.84;;;4.72;100.00
21902;BME280;11115;46.038;14.612;2024-03-08T07:48:48;98655.84;;;4.80;100.00
21902;BME280;11115;46.038;14.612;2024-03-08T07:51:23;98662.41;;;4.74;100.00
21902;BME280;11115;46.038;14.612;2024-03-08T07:53:57;98666.31;;;4.88;100.00
21902;BME280;11115;46.038;14.612;2024-03-08T07:56:37;98664.13;;;4.96;100.00
21902;BME280;11115;46.038;14.612;2024-03-08T07:59:15;98662.00;;;5.08;100.00
21902;BME280;11115;46.038;14.612;2024-03-08T08:01:55;98647.47;;;5.12;100.00
21902;BME280;11115;46.038;14.612;2024-03-08T08:04:27;98660.94;;;5.19;100.00
21902;BME280;11115;46.038;14.612;2024-03-08T08:06:58;98656.38;;;4.77;100.00
21902;BME280;11115;46.038;14.612;2024-03-08T08:09:34;98652.31;;;4.85;100.00
21902;BME280;11115;46.038;14.612;2024-03-08T08:12:22;98657.84;;;4.95;100.00
21902;BME280;11115;46.038;14.612;2024-03-08T08:14:52;98664.16;;;5.01;100.00
21902;BME280;11115;46.038;14.612;2024-03-08T08:17:23;98661.94;;;4.98;100.00
21902;BME280;11115;46.038;14.612;2024-03-08T08:20:10;98656.25;;;5.19;100.00
21902;BME280;11115;46.038;14.612;2024-03-08T08:22:46;98645.81;;;5.06;100.00
21902;BME280;11115;46.038;14.612;2024-03-08T08:25:19;98663.44;;;5.31;100.00
21902;BME280;11115;46.038;14.612;2024-03-08T08:27:56;98655.22;;;5.31;100.00
21902;BME280;11115;46.038;14.612;2024-03-08T08:30:33;98643.41;;;5.25;100.00
21902;BME280;11115;46.038;14.612;2024-03-08T08:33:14;98658.53;;;5.43;100.00
21902;BME280;11115;46.038;14.612;2024-03-08T08:35:51;98662.94;;;5.49;100.00
21902;BME280;11115;46.038;14.612;2024-03-08T08:38:24;98657.22;;;5.61;100.00
21902;BME280;11115;46.038;14.612;2024-03-08T08:40:57;98658.03;;;5.61;100.00
21902;BME280;11115;46.038;14.612;2024-03-08T08:43:27;98655.81;;;5.68;100.00
21902;BME280;11115;46.038;14.612;2024-03-08T08:45:57;98646.78;;;5.83;100.00
21902;BME280;11115;46.038;14.612;2024-03-08T08:48:27;98653.38;;;5.82;100.00
21902;BME280;11115;46.038;14.612;2024-03-08T08:51:03;98650.34;;;5.78;100.00
21902;BME280;11115;46.038;14.612;2024-03-08T08:53:46;98627.00;;;5.71;100.00
21902;BME280;11115;46.038;14.612;2024-03-08T08:56:19;98619.31;;;5.53;100.00
21902;BME280;11115;46.038;14.612;2024-03-08T08:58:54;98647.03;;;5.66;100.00
21902;BME280;11115;46.038;14.612;2024-03-08T09:01:29;98648.19;;;5.91;100.00
21902;BME280;11115;46.038;14.612;2024-03-08T09:04:00;98646.00;;;5.98;100.00
21902;BME280;11115;46.038;14.612;2024-03-08T09:06:51;98647.66;;;5.99;100.00
21902;BME280;11115;46.038;14.612;2024-03-08T09:09:26;98642.66;;;6.16;100.00
21902;BME280;11115;46.038;14.612;2024-03-08T09:12:01;98635.81;;;6.14;100.00
21902;BME280;11115;46.038;14.612;2024-03-08T09:14:40;98639.13;;;6.21;100.00
21902;BME280;11115;46.038;14.612;2024-03-08T09:17:13;98631.66;;;6.31;100.00
21902;BME280;11115;46.038;14.612;2024-03-08T09:19:48;98633.59;;;6.31;100.00
21902;BME280;11115;46.038;14.612;2024-03-08T09:22:23;98630.84;;;6.31;100.00
21902;BME280;11115;46.038;14.612;2024-03-08T09:24:54;98631.94;;;6.30;100.00
21902;BME280;11115;46.038;14.612;2024-03-08T09:27:33;98637.72;;;6.38;100.00
21902;BME280;11115;46.038;14.612;2024-03-08T09:30:09;98633.59;;;6.26;100.00
21902;BME280;11115;46.038;14.612;2024-03-08T09:32:43;98622.66;;;6.05;100.00
21902;BME280;11115;46.038;14.612;2024-03-08T09:35:17;98633.34;;;6.22;100.00
21902;BME280;11115;46.038;14.612;2024-03-08T09:38:02;98620.94;;;6.35;100.00
21902;BME280;11115;46.038;14.612;2024-03-08T09:40:42;98628.31;;;6.50;100.00
21902;BME280;11115;46.038;14.612;2024-03-08T09:43:24;98633.81;;;6.60;100.00
21902;BME280;11115;46.038;14.612;2024-03-08T09:45:57;98622.50;;;6.66;100.00
21902;BME280;11115;46.038;14.612;2024-03-08T09:48:34;98634.13;;;6.38;100.00
21902;BME280;11115;46.038;14.612;2024-03-08T09:51:21;98633.84;;;6.45;100.00
21902;BME280;11115;46.038;14.612;2024-03-08T09:54:15;98629.69;;;6.57;100.00
21902;BME280;11115;46.038;14.612;2024-03-08T09:56:52;98626.94;;;6.57;100.00
21902;BME280;11115;46.038;14.612;2024-03-08T09:59:29;98628.06;;;6.46;100.00
21902;BME280;11115;46.038;14.612;2024-03-08T10:02:24;98631.38;;;6.43;100.00
21902;BME280;11115;46.038;14.612;2024-03-08T10:05:02;98618.78;;;6.22;100.00
21902;BME280;11115;46.038;14.612;2024-03-08T10:07:34;98629.75;;;6.27;100.00
21902;BME280;11115;46.038;14.612;2024-03-08T10:10:08;98629.50;;;6.23;100.00
21902;BME280;11115;46.038;14.612;2024-03-08T10:12:45;98628.66;;;6.23;100.00
21902;BME280;11115;46.038;14.612;2024-03-08T10:15:17;98625.09;;;6.27;100.00
21902;BME280;11115;46.038;14.612;2024-03-08T10:18:07;98631.38;;;6.33;100.00
21902;BME280;11115;46.038;14.612;2024-03-08T10:20:41;98627.28;;;6.25;100.00
21902;BME280;11115;46.038;14.612;2024-03-08T10:23:24;98633.59;;;6.26;100.00
21902;BME280;11115;46.038;14.612;2024-03-08T10:26:13;98616.28;;;6.30;100.00
21902;BME280;11115;46.038;14.612;2024-03-08T10:29:05;98630.84;;;6.41;100.00
21902;BME280;11115;46.038;14.612;2024-03-08T10:31:39;98572.34;;;6.15;100.00
21902;BME280;11115;46.038;14.612;2024-03-08T10:34:18;98626.94;;;6.57;100.00
21902;BME280;11115;46.038;14.612;2024-03-08T10:36:58;98624.47;;;6.61;100.00
21902;BME280;11115;46.038;14.612;2024-03-08T10:39:36;98623.31;;;6.67;100.00
21902;BME280;11115;46.038;14.612;2024-03-08T10:42:11;98624.19;;;6.62;100.00
21902;BME280;11115;46.038;14.612;2024-03-08T10:45:03;98620.34;;;6.58;100.00
21902;BME280;11115;46.038;14.612;2024-03-08T10:47:47;98626.66;;;6.59;100.00
21902;BME280;11115;46.038;14.612;2024-03-08T10:50:27;98625.00;;;6.63;100.00
21902;BME280;11115;46.038;14.612;2024-03-08T10:53:07;98628.25;;;6.70;100.00
21902;BME280;11115;46.038;14.612;2024-03-08T10:55:44;98622.25;;;6.63;100.00
21902;BME280;11115;46.038;14.612;2024-03-08T10:58:22;98624.16;;;6.67;100.00
21902;BME280;11115;46.038;14.612;2024-03-08T11:01:05;98623.03;;;6.68;100.00
21902;BME280;11115;46.038;14.612;2024-03-08T11:03:47;98627.19;;;6.66;100.00
21902;BME280;11115;46.038;14.612;2024-03-08T11:06:44;98620.56;;;6.72;100.00
21902;BME280;11115;46.038;14.612;2024-03-08T11:09:37;98612.91;;;6.64;100.00
21902;BME280;11115;46.038;14.612;2024-03-08T11:15:10;98610.13;;;6.69;100.00
21902;BME280;11115;46.038;14.612;2024-03-08T11:17:51;98604.38;;;6.65;100.00
21902;BME280;11115;46.038;14.612;2024-03-08T11:20:31;98608.78;;;6.61;100.00
21902;BME280;11115;46.038;14.612;2024-03-08T11:23:06;98603.53;;;6.65;100.00
21902;BME280;11115;46.038;14.612;2024-03-08T11:25:46;98603.53;;;6.65;100.00
21902;BME280;11115;46.038;14.612;2024-03-08T11:28:26;98604.31;;;6.81;100.00
21902;BME280;11115;46.038;14.612;2024-03-08T11:33:49;98599.31;;;6.88;100.00
21902;BME280;11115;46.038;14.612;2024-03-08T11:36:25;98594.59;;;6.98;100.00
21902;BME280;11115;46.038;14.612;2024-03-08T11:39:05;98569.38;;;6.81;100.00
21902;BME280;11115;46.038;14.612;2024-03-08T11:41:50;98589.09;;;6.93;100.00
21902;BME280;11115;46.038;14.612;2024-03-08T11:44:37;98583.00;;;7.07;100.00
21902;BME280;11115;46.038;14.612;2024-03-08T11:47:11;98578.03;;;7.14;100.00
21902;BME280;11115;46.038;14.612;2024-03-08T11:49:42;98581.06;;;7.07;100.00
21902;BME280;11115;46.038;14.612;2024-03-08T11:52:18;98578.59;;;7.06;100.00
21902;BME280;11115;46.038;14.612;2024-03-08T11:55:11;98580.53;;;7.05;100.00
21902;BME280;11115;46.038;14.612;2024-03-08T11:58:08;98575.09;;;6.90;100.00
21902;BME280;11115;46.038;14.612;2024-03-08T12:00:42;98578.69;;;6.90;100.00
21902;BME280;11115;46.038;14.612;2024-03-08T12:03:23;98575.44;;;6.83;100.00
21902;BME280;11115;46.038;14.612;2024-03-08T12:05:59;98553.47;;;6.78;100.00
21902;BME280;11115;46.038;14.612;2024-03-08T12:08:36;98572.69;;;6.83;100.00
21902;BME280;11115;46.038;14.612;2024-03-08T12:11:11;98569.84;;;6.93;100.00
21902;BME280;11115;46.038;14.612;2024-03-08T12:13:47;98526.81;;;6.68;100.00
21902;BME280;11115;46.038;14.612;2024-03-08T12:16:38;98564.38;;;6.88;100.00
21902;BME280;11115;46.038;14.612;2024-03-08T12:19:17;98558.03;;;6.93;100.00
21902;BME280;11115;46.038;14.612;2024-03-08T12:21:51;98571.22;;;7.01;100.00
21902;BME280;11115;46.038;14.612;2024-03-08T12:24:28;98560.75;;;7.03;100.00
21902;BME280;11115;46.038;14.612;2024-03-08T12:26:57;98558.78;;;7.09;100.00
21902;BME280;11115;46.038;14.612;2024-03-08T12:29:39;98557.38;;;7.16;100.00
21902;BME280;11115;46.038;14.612;2024-03-08T12:32:16;98554.63;;;7.11;100.00
21902;BME280;11115;46.038;14.612;2024-03-08T12:34:59;98557.38;;;7.16;100.00
21902;BME280;11115;46.038;14.612;2024-03-08T12:37:33;98538.13;;;7.16;100.00
21902;BME280;11115;46.038;14.612;2024-03-08T12:40:12;98541.09;;;7.20;100.00
21902;BME280;11115;46.038;14.612;2024-03-08T12:42:49;98541.34;;;7.23;100.00
21902;BME280;11115;46.038;14.612;2024-03-08T12:45:32;98540.53;;;7.23;100.00
21902;BME280;11115;46.038;14.612;2024-03-08T12:48:18;98537.28;;;7.16;100.00
21902;BME280;11115;46.038;14.612;2024-03-08T12:50:52;98543.94;;;7.05;100.00
21902;BME280;11115;46.038;14.612;2024-03-08T12:53:26;98542.28;;;7.09;100.00
21902;BME280;11115;46.038;14.612;2024-03-08T12:56:09;98542.59;;;7.02;100.00
21902;BME280;11115;46.038;14.612;2024-03-08T12:58:47;98537.84;;;7.13;100.00
21902;BME280;11115;46.038;14.612;2024-03-08T13:01:24;98523.81;;;7.14;100.00
21902;BME280;11115;46.038;14.612;2024-03-08T13:03:53;98509.50;;;7.12;100.00
21902;BME280;11115;46.038;14.612;2024-03-08T13:06:29;98524.44;;;7.01;100.00
21902;BME280;11115;46.038;14.612;2024-03-08T13:09:02;98520.34;;;6.98;100.00
21902;BME280;11115;46.038;14.612;2024-03-08T13:11:43;98525.97;;;7.22;100.00
21902;BME280;11115;46.038;14.612;2024-03-08T13:14:17;98524.31;;;7.21;100.00
21902;BME280;11115;46.038;14.612;2024-03-08T13:16:50;98525.03;;;7.32;100.00
21902;BME280;11115;46.038;14.612;2024-03-08T13:19:36;98505.28;;;7.25;100.00
21902;BME280;11115;46.038;14.612;2024-03-08T13:22:08;98510.28;;;7.23;100.00
21902;BME280;11115;46.038;14.612;2024-03-08T13:25:01;98505.06;;;7.21;100.00
21902;BME280;11115;46.038;14.612;2024-03-08T13:27:33;98499.06;;;7.09;100.00
21902;BME280;11115;46.038;14.612;2024-03-08T13:30:20;98500.44;;;7.12;100.00
21902;BME280;11115;46.038;14.612;2024-03-08T13:32:54;98493.88;;;7.08;100.00
21902;BME280;11115;46.038;14.612;2024-03-08T13:35:36;98500.28;;;6.93;100.00
21902;BME280;11115;46.038;14.612;2024-03-08T13:38:17;98491.53;;;6.86;100.00
21902;BME280;11115;46.038;14.612;2024-03-08T13:40:54;98495.06;;;6.91;100.00
21902;BME280;11115;46.038;14.612;2024-03-08T13:43:34;98493.09;;;7.02;100.00
21902;BME280;11115;46.038;14.612;2024-03-08T13:46:09;98489.56;;;6.96;100.00
21902;BME280;11115;46.038;14.612;2024-03-08T13:48:43;98486.22;;;6.99;100.00